sensor_id;sensor_type;location;lat;lon;timestamp;pressure;altitude;pressure_sealevel;temperature;humidity
80798;BME280;70202;52.238;10.680;2023-11-19T00:00:56;99643.41;;;7.56;95.21
80798;BME280;70202;52.238;10.680;2023-11-19T00:01:56;99637.13;;;7.55;95.51
80798;BME280;70202;52.238;10.680;2023-11-19T00:02:57;99632.53;;;7.57;94.93
80798;BME280;70202;52.238;10.680;2023-11-19T00:03:58;99624.41;;;7.57;95.82
80798;BME280;70202;52.238;10.680;2023-11-19T00:04:58;99634.31;;;7.58;95.17
80798;BME280;70202;52.238;10.680;2023-11-19T00:05:59;99610.97;;;7.54;95.57
80798;BME280;70202;52.238;10.680;2023-11-19T00:06:59;99618.94;;;7.59;94.53
80798;BME280;70202;52.238;10.680;2023-11-19T00:08:04;99603.09;;;7.48;95.12
80798;BME280;70202;52.238;10.680;2023-11-19T00:09:06;99613.56;;;7.57;94.86
80798;BME280;70202;52.238;10.680;2023-11-19T00:10:12;99622.47;;;7.61;94.84
80798;BME280;70202;52.238;10.680;2023-11-19T00:11:13;99610.72;;;7.60;95.46
80798;BME280;70202;52.238;10.680;2023-11-19T00:12:16;99625.13;;;7.62;95.20
80798;BME280;70202;52.238;10.680;2023-11-19T00:13:16;99625.13;;;7.62;94.34
80798;BME280;70202;52.238;10.680;2023-11-19T00:14:16;99635.97;;;7.62;95.06
80798;BME280;70202;52.238;10.680;2023-11-19T00:15:17;99604.88;;;7.47;94.72
80798;BME280;70202;52.238;10.680;2023-11-19T00:16:18;99618.03;;;7.58;95.25
80798;BME280;70202;52.238;10.680;2023-11-19T00:17:18;99611.91;;;7.53;94.38
80798;BME280;70202;52.238;10.680;2023-11-19T00:18:19;99603.50;;;7.61;95.04
80798;BME280;70202;52.238;10.680;2023-11-19T00:19:19;99614.34;;;7.61;95.18
80798;BME280;70202;52.238;10.680;2023-11-19T00:20:20;99613.41;;;7.62;94.63
80798;BME280;70202;52.238;10.680;2023-11-19T00:21:22;99607.03;;;7.63;95.75
80798;BME280;70202;52.238;10.680;2023-11-19T00:22:22;99601.53;;;7.64;95.26
80798;BME280;70202;52.238;10.680;2023-11-19T00:23:23;99606.94;;;7.64;94.39
80798;BME280;70202;52.238;10.680;2023-11-19T00:24:23;99614.16;;;7.65;94.81
80798;BME280;70202;52.238;10.680;2023-11-19T00:25:24;99606.03;;;7.65;94.70
80798;BME280;70202;52.238;10.680;2023-11-19T00:26:25;99596.97;;;7.66;94.94
80798;BME280;70202;52.238;10.680;2023-11-19T00:27:25;99573.81;;;7.58;95.09
80798;BME280;70202;52.238;10.680;2023-11-19T00:28:26;99593.28;;;7.67;94.11
80798;BME280;70202;52.238;10.680;2023-11-19T00:29:26;99595.06;;;7.68;94.74
80798;BME280;70202;52.238;10.680;2023-11-19T00:30:27;99596.84;;;7.69;94.67
80798;BME280;70202;52.238;10.680;2023-11-19T00:31:27;99593.19;;;7.70;94.78
80798;BME280;70202;52.238;10.680;2023-11-19T00:32:28;99589.53;;;7.71;94.78
80798;BME280;70202;52.238;10.680;2023-11-19T00:33:28;99588.72;;;7.69;94.56
80798;BME280;70202;52.238;10.680;2023-11-19T00:34:29;99556.78;;;7.54;93.82
80798;BME280;70202;52.238;10.680;2023-11-19T00:35:29;99586.63;;;7.76;94.51
80798;BME280;70202;52.238;10.680;2023-11-19T00:36:31;99585.69;;;7.77;94.81
80798;BME280;70202;52.238;10.680;2023-11-19T00:37:32;99586.53;;;7.79;94.38
80798;BME280;70202;52.238;10.680;2023-11-19T00:38:32;99578.31;;;7.81;94.03
80798;BME280;70202;52.238;10.680;2023-11-19T00:39:33;99556.81;;;7.76;94.40
80798;BME280;70202;52.238;10.680;2023-11-19T00:40:33;99554.06;;;7.78;94.61
80798;BME280;70202;52.238;10.680;2023-11-19T00:41:33;99561.00;;;7.85;93.92
80798;BME280;70202;52.238;10.680;2023-11-19T00:42:34;99558.41;;;7.82;94.28
80798;BME280;70202;52.238;10.680;2023-11-19T00:43:34;99559.13;;;7.87;94.34
80798;BME280;70202;52.238;10.680;2023-11-19T00:44:34;99553.63;;;7.88;94.67
80798;BME280;70202;52.238;10.680;2023-11-19T00:45:35;99549.06;;;7.89;94.26
80798;BME280;70202;52.238;10.680;2023-11-19T00:46:35;99540.94;;;7.89;94.35
80798;BME280;70202;52.238;10.680;2023-11-19T00:47:36;99541.00;;;7.87;95.10
80798;BME280;70202;52.238;10.680;2023-11-19T00:48:37;99541.78;;;7.91;94.12
80798;BME280;70202;52.238;10.680;2023-11-19T00:49:37;99535.41;;;7.92;94.57
80798;BME280;70202;52.238;10.680;2023-11-19T00:50:38;99533.50;;;7.94;93.75
80798;BME280;70202;52.238;10.680;2023-11-19T00:51:42;99533.56;;;7.92;94.22
80798;BME280;70202;52.238;10.680;2023-11-19T00:52:42;99532.56;;;7.95;94.50
80798;BME280;70202;52.238;10.680;2023-11-19T00:53:43;99528.03;;;7.95;94.18
80798;BME280;70202;52.238;10.680;2023-11-19T00:54:43;99508.47;;;7.87;93.94
80798;BME280;70202;52.238;10.680;2023-11-19T00:55:43;99531.50;;;7.99;94.67
80798;BME280;70202;52.238;10.680;2023-11-19T00:56:44;99521.53;;;7.99;94.63
80798;BME280;70202;52.238;10.680;2023-11-19T00:57:44;99519.72;;;8.00;94.54
80798;BME280;70202;52.238;10.680;2023-11-19T00:58:45;99525.06;;;8.01;94.12
80798;BME280;70202;52.238;10.680;2023-11-19T00:59:45;99510.63;;;8.01;93.71
80798;BME280;70202;52.238;10.680;2023-11-19T01:00:47;99517.59;;;8.07;94.70
80798;BME280;70202;52.238;10.680;2023-11-19T01:01:47;99514.00;;;8.06;94.04
80798;BME280;70202;52.238;10.680;2023-11-19T01:02:48;99514.84;;;8.08;94.78
80798;BME280;70202;52.238;10.680;2023-11-19T01:03:50;99512.13;;;8.08;94.37
80798;BME280;70202;52.238;10.680;2023-11-19T01:04:50;99499.00;;;7.97;94.47
80798;BME280;70202;52.238;10.680;2023-11-19T01:05:51;99477.47;;;7.94;94.07
80798;BME280;70202;52.238;10.680;2023-11-19T01:06:52;99500.25;;;8.11;94.39
80798;BME280;70202;52.238;10.680;2023-11-19T01:07:52;99504.69;;;8.13;94.13
80798;BME280;70202;52.238;10.680;2023-11-19T01:08:54;99479.72;;;8.05;94.62
80798;BME280;70202;52.238;10.680;2023-11-19T01:09:55;99489.16;;;8.17;93.83
80798;BME280;70202;52.238;10.680;2023-11-19T01:10:55;99484.53;;;8.19;94.70
80798;BME280;70202;52.238;10.680;2023-11-19T01:11:56;99478.25;;;8.18;94.19
80798;BME280;70202;52.238;10.680;2023-11-19T01:12:56;99478.13;;;8.21;94.55
80798;BME280;70202;52.238;10.680;2023-11-19T01:13:57;99468.47;;;8.14;94.55
80798;BME280;70202;52.238;10.680;2023-11-19T01:14:57;99413.09;;;7.78;94.04
80798;BME280;70202;52.238;10.680;2023-11-19T01:15:58;99490.63;;;8.25;94.66
80798;BME280;70202;52.238;10.680;2023-11-19T01:16:58;99491.41;;;8.27;95.44
80798;BME280;70202;52.238;10.680;2023-11-19T01:17:59;99495.00;;;8.28;94.72
80798;BME280;70202;52.238;10.680;2023-11-19T01:18:59;99491.38;;;8.29;94.24
80798;BME280;70202;52.238;10.680;2023-11-19T01:20:04;99491.41;;;8.27;95.19
80798;BME280;70202;52.238;10.680;2023-11-19T01:21:07;99494.88;;;8.31;94.65
80798;BME280;70202;52.238;10.680;2023-11-19T01:22:08;99478.56;;;8.33;94.63
80798;BME280;70202;52.238;10.680;2023-11-19T01:23:09;99484.88;;;8.33;94.25
80798;BME280;70202;52.238;10.680;2023-11-19T01:24:09;99480.25;;;8.35;95.30
80798;BME280;70202;52.238;10.680;2023-11-19T01:25:10;99486.53;;;8.37;94.84
80798;BME280;70202;52.238;10.680;2023-11-19T01:26:11;99481.09;;;8.37;94.77
80798;BME280;70202;52.238;10.680;2023-11-19T01:27:12;99489.16;;;8.39;95.34
80798;BME280;70202;52.238;10.680;2023-11-19T01:28:12;99491.81;;;8.40;94.40
80798;BME280;70202;52.238;10.680;2023-11-19T01:29:13;99462.41;;;8.30;95.01
80798;BME280;70202;52.238;10.680;2023-11-19T01:30:14;99480.81;;;8.43;94.54
80798;BME280;70202;52.238;10.680;2023-11-19T01:31:17;99466.50;;;8.40;95.05
80798;BME280;70202;52.238;10.680;2023-11-19T01:32:17;99475.31;;;8.45;94.52
80798;BME280;70202;52.238;10.680;2023-11-19T01:33:18;99478.00;;;8.46;94.81
80798;BME280;70202;52.238;10.680;2023-11-19T01:34:18;99472.47;;;8.48;94.73
80798;BME280;70202;52.238;10.680;2023-11-19T01:35:19;99483.34;;;8.48;94.80
80798;BME280;70202;52.238;10.680;2023-11-19T01:36:19;99475.19;;;8.48;95.20
80798;BME280;70202;52.238;10.680;2023-11-19T01:37:20;99467.88;;;8.50;94.54
80798;BME280;70202;52.238;10.680;2023-11-19T01:38:21;99466.03;;;8.50;95.49
80798;BME280;70202;52.238;10.680;2023-11-19T01:39:21;99449.75;;;8.50;94.86
80798;BME280;70202;52.238;10.680;2023-11-19T01:40:22;99450.56;;;8.52;94.83
80798;BME280;70202;52.238;10.680;2023-11-19T01:41:22;99455.03;;;8.54;95.26
80798;BME280;70202;52.238;10.680;2023-11-19T01:42:23;99450.53;;;8.54;94.65
80798;BME280;70202;52.238;10.680;2023-11-19T01:43:38;99423.03;;;8.41;95.48
80798;BME280;70202;52.238;10.680;2023-11-19T01:44:41;99433.19;;;8.57;95.03
80798;BME280;70202;52.238;10.680;2023-11-19T01:45:42;99397.97;;;8.35;94.81
80798;BME280;70202;52.238;10.680;2023-11-19T01:46:44;99437.66;;;8.58;94.85
80798;BME280;70202;52.238;10.680;2023-11-19T01:47:47;99426.25;;;8.49;95.55
80798;BME280;70202;52.238;10.680;2023-11-19T01:48:47;99441.22;;;8.60;95.55
80798;BME280;70202;52.238;10.680;2023-11-19T01:49:48;99443.84;;;8.61;95.35
80798;BME280;70202;52.238;10.680;2023-11-19T01:50:49;99442.00;;;8.62;95.21
80798;BME280;70202;52.238;10.680;2023-11-19T01:51:50;99444.72;;;8.62;95.35
80798;BME280;70202;52.238;10.680;2023-11-19T01:52:52;99436.53;;;8.63;95.38
80798;BME280;70202;52.238;10.680;2023-11-19T01:53:54;99422.97;;;8.63;95.35
80798;BME280;70202;52.238;10.680;2023-11-19T01:54:55;99429.19;;;8.65;95.87
80798;BME280;70202;52.238;10.680;2023-11-19T01:55:56;99416.69;;;8.61;95.39
80798;BME280;70202;52.238;10.680;2023-11-19T01:56:57;99436.31;;;8.68;95.53
80798;BME280;70202;52.238;10.680;2023-11-19T01:57:59;99428.09;;;8.69;95.31
80798;BME280;70202;52.238;10.680;2023-11-19T01:59:02;99428.03;;;8.71;95.63
80798;BME280;70202;52.238;10.680;2023-11-19T02:00:03;99416.22;;;8.72;95.80
80798;BME280;70202;52.238;10.680;2023-11-19T02:01:05;99416.16;;;8.73;95.41
80798;BME280;70202;52.238;10.680;2023-11-19T02:02:07;99417.91;;;8.74;95.33
80798;BME280;70202;52.238;10.680;2023-11-19T02:03:08;99406.13;;;8.75;96.14
80798;BME280;70202;52.238;10.680;2023-11-19T02:04:09;99407.88;;;8.76;96.04
80798;BME280;70202;52.238;10.680;2023-11-19T02:05:13;99415.06;;;8.77;95.80
80798;BME280;70202;52.238;10.680;2023-11-19T02:06:14;99408.66;;;8.79;96.39
80798;BME280;70202;52.238;10.680;2023-11-19T02:07:15;99374.97;;;8.64;95.93
80798;BME280;70202;52.238;10.680;2023-11-19T02:08:17;99399.38;;;8.84;96.03
80798;BME280;70202;52.238;10.680;2023-11-19T02:09:18;99388.44;;;8.86;96.27
80798;BME280;70202;52.238;10.680;2023-11-19T02:10:19;99393.72;;;8.89;96.11
80798;BME280;70202;52.238;10.680;2023-11-19T02:11:19;99386.47;;;8.89;96.71
80798;BME280;70202;52.238;10.680;2023-11-19T02:12:20;99376.38;;;8.91;96.59
80798;BME280;70202;52.238;10.680;2023-11-19T02:13:20;99364.59;;;8.92;96.58
80798;BME280;70202;52.238;10.680;2023-11-19T02:14:25;99379.84;;;8.95;96.56
80798;BME280;70202;52.238;10.680;2023-11-19T02:15:26;99371.66;;;8.96;96.41
80798;BME280;70202;52.238;10.680;2023-11-19T02:16:26;99378.84;;;8.97;96.60
80798;BME280;70202;52.238;10.680;2023-11-19T02:17:31;99371.56;;;8.98;96.22
80798;BME280;70202;52.238;10.680;2023-11-19T02:18:31;99374.19;;;8.99;96.46
80798;BME280;70202;52.238;10.680;2023-11-19T02:19:32;99365.13;;;9.00;96.10
80798;BME280;70202;52.238;10.680;2023-11-19T02:20:33;99362.31;;;9.02;96.77
80798;BME280;70202;52.238;10.680;2023-11-19T02:21:34;99372.22;;;9.03;96.38
80798;BME280;70202;52.238;10.680;2023-11-19T02:22:34;99338.53;;;8.88;97.31
80798;BME280;70202;52.238;10.680;2023-11-19T02:23:35;99368.41;;;9.07;97.03
80798;BME280;70202;52.238;10.680;2023-11-19T02:24:35;99362.88;;;9.09;96.49
80798;BME280;70202;52.238;10.680;2023-11-19T02:25:36;99351.53;;;9.00;97.19
80798;BME280;70202;52.238;10.680;2023-11-19T02:26:56;99375.44;;;9.11;96.76
80798;BME280;70202;52.238;10.680;2023-11-19T02:28:00;99355.13;;;9.01;96.91
80798;BME280;70202;52.238;10.680;2023-11-19T02:29:01;99373.69;;;9.10;96.66
80798;BME280;70202;52.238;10.680;2023-11-19T02:30:03;99377.06;;;9.15;97.22
80798;BME280;70202;52.238;10.680;2023-11-19T02:31:06;99374.34;;;9.15;96.51
80798;BME280;70202;52.238;10.680;2023-11-19T02:32:09;99359.22;;;9.10;97.04
80798;BME280;70202;52.238;10.680;2023-11-19T02:33:09;99379.56;;;9.20;96.97
80798;BME280;70202;52.238;10.680;2023-11-19T02:34:10;99361.88;;;9.11;97.35
80798;BME280;70202;52.238;10.680;2023-11-19T02:35:12;99373.16;;;9.21;96.91
80798;BME280;70202;52.238;10.680;2023-11-19T02:36:13;99375.81;;;9.22;97.00
80798;BME280;70202;52.238;10.680;2023-11-19T02:37:13;99379.41;;;9.23;97.49
80798;BME280;70202;52.238;10.680;2023-11-19T02:38:14;99375.81;;;9.22;97.20
80798;BME280;70202;52.238;10.680;2023-11-19T02:39:15;99378.38;;;9.25;97.31
80798;BME280;70202;52.238;10.680;2023-11-19T02:40:21;99378.31;;;9.27;97.26
80798;BME280;70202;52.238;10.680;2023-11-19T02:41:23;99365.59;;;9.27;97.27
80798;BME280;70202;52.238;10.680;2023-11-19T02:42:23;99366.41;;;9.30;97.56
80798;BME280;70202;52.238;10.680;2023-11-19T02:43:24;99357.38;;;9.29;97.10
80798;BME280;70202;52.238;10.680;2023-11-19T02:44:24;99368.19;;;9.31;97.06
80798;BME280;70202;52.238;10.680;2023-11-19T02:45:25;99367.22;;;9.32;97.26
80798;BME280;70202;52.238;10.680;2023-11-19T02:46:26;99358.19;;;9.31;97.75
80798;BME280;70202;52.238;10.680;2023-11-19T02:47:26;99357.22;;;9.32;97.09
80798;BME280;70202;52.238;10.680;2023-11-19T02:48:28;99347.56;;;9.26;97.30
80798;BME280;70202;52.238;10.680;2023-11-19T02:49:28;99357.13;;;9.34;97.74
80798;BME280;70202;52.238;10.680;2023-11-19T02:50:28;99355.31;;;9.34;97.64
80798;BME280;70202;52.238;10.680;2023-11-19T02:51:29;99351.69;;;9.34;97.24
80798;BME280;70202;52.238;10.680;2023-11-19T02:52:30;99357.13;;;9.34;97.52
80798;BME280;70202;52.238;10.680;2023-11-19T02:53:35;99343.50;;;9.35;97.12
80798;BME280;70202;52.238;10.680;2023-11-19T02:54:37;99342.63;;;9.35;97.29
80798;BME280;70202;52.238;10.680;2023-11-19T02:55:37;99346.22;;;9.35;97.34
80798;BME280;70202;52.238;10.680;2023-11-19T02:56:43;99327.44;;;9.31;98.22
80798;BME280;70202;52.238;10.680;2023-11-19T02:57:44;99332.44;;;9.38;98.00
80798;BME280;70202;52.238;10.680;2023-11-19T02:58:48;99336.06;;;9.39;97.92
80798;BME280;70202;52.238;10.680;2023-11-19T02:59:49;99327.34;;;9.32;98.24
80798;BME280;70202;52.238;10.680;2023-11-19T03:00:49;99339.59;;;9.41;97.98
80798;BME280;70202;52.238;10.680;2023-11-19T03:01:57;99340.38;;;9.43;98.26
80798;BME280;70202;52.238;10.680;2023-11-19T03:02:59;99339.50;;;9.42;98.65
80798;BME280;70202;52.238;10.680;2023-11-19T03:04:05;99328.56;;;9.44;98.18
80798;BME280;70202;52.238;10.680;2023-11-19T03:05:06;99317.06;;;9.39;98.06
80798;BME280;70202;52.238;10.680;2023-11-19T03:06:08;99304.47;;;9.36;98.18
80798;BME280;70202;52.238;10.680;2023-11-19T03:07:09;99321.19;;;9.46;98.19
80798;BME280;70202;52.238;10.680;2023-11-19T03:08:10;99321.19;;;9.46;98.34
80798;BME280;70202;52.238;10.680;2023-11-19T03:09:10;99315.75;;;9.46;98.56
80798;BME280;70202;52.238;10.680;2023-11-19T03:10:11;99325.69;;;9.47;98.68
80798;BME280;70202;52.238;10.680;2023-11-19T03:11:15;99297.22;;;9.37;98.92
80798;BME280;70202;52.238;10.680;2023-11-19T03:12:15;99312.03;;;9.48;98.87
80798;BME280;70202;52.238;10.680;2023-11-19T03:13:16;99315.53;;;9.50;99.08
80798;BME280;70202;52.238;10.680;2023-11-19T03:14:18;99222.75;;;9.05;99.17
80798;BME280;70202;52.238;10.680;2023-11-19T03:15:18;99311.78;;;9.53;99.77
80798;BME280;70202;52.238;10.680;2023-11-19T03:16:19;99313.53;;;9.54;99.43
80798;BME280;70202;52.238;10.680;2023-11-19T03:17:19;99301.69;;;9.55;100.00
80798;BME280;70202;52.238;10.680;2023-11-19T03:18:20;99294.44;;;9.56;99.53
80798;BME280;70202;52.238;10.680;2023-11-19T03:19:20;99294.38;;;9.57;100.00
80798;BME280;70202;52.238;10.680;2023-11-19T03:20:21;99283.50;;;9.57;100.00
80798;BME280;70202;52.238;10.680;2023-11-19T03:21:30;99292.53;;;9.58;99.71
80798;BME280;70202;52.238;10.680;2023-11-19T03:22:31;99295.16;;;9.59;99.84
80798;BME280;70202;52.238;10.680;2023-11-19T03:23:34;99299.66;;;9.60;100.00
80798;BME280;70202;52.238;10.680;2023-11-19T03:24:35;99286.94;;;9.61;100.00
80798;BME280;70202;52.238;10.680;2023-11-19T03:25:36;99288.69;;;9.62;100.00
80798;BME280;70202;52.238;10.680;2023-11-19T03:26:37;99281.41;;;9.62;100.00
80798;BME280;70202;52.238;10.680;2023-11-19T03:27:38;99288.53;;;9.65;100.00
80798;BME280;70202;52.238;10.680;2023-11-19T03:28:39;99279.41;;;9.66;100.00
80798;BME280;70202;52.238;10.680;2023-11-19T03:29:39;99273.88;;;9.67;100.00
80798;BME280;70202;52.238;10.680;2023-11-19T03:30:40;99270.22;;;9.68;100.00
80798;BME280;70202;52.238;10.680;2023-11-19T03:31:43;99264.72;;;9.70;100.00
80798;BME280;70202;52.238;10.680;2023-11-19T03:32:44;99275.50;;;9.71;100.00
80798;BME280;70202;52.238;10.680;2023-11-19T03:33:45;99271.81;;;9.72;100.00
80798;BME280;70202;52.238;10.680;2023-11-19T03:34:45;99275.34;;;9.74;100.00
80798;BME280;70202;52.238;10.680;2023-11-19T03:35:45;99263.50;;;9.75;100.00
80798;BME280;70202;52.238;10.680;2023-11-19T03:36:46;99270.69;;;9.76;100.00
80798;BME280;70202;52.238;10.680;2023-11-19T03:37:46;99263.44;;;9.77;100.00
80798;BME280;70202;52.238;10.680;2023-11-19T03:38:47;99257.91;;;9.79;100.00
80798;BME280;70202;52.238;10.680;2023-11-19T03:39:47;99253.44;;;9.77;100.00
80798;BME280;70202;52.238;10.680;2023-11-19T03:40:47;99267.72;;;9.81;100.00
80798;BME280;70202;52.238;10.680;2023-11-19T03:41:48;99233.97;;;9.68;100.00
80798;BME280;70202;52.238;10.680;2023-11-19T03:42:48;99252.13;;;9.85;100.00
80798;BME280;70202;52.238;10.680;2023-11-19T03:43:48;99259.34;;;9.86;100.00
80798;BME280;70202;52.238;10.680;2023-11-19T03:44:49;99255.66;;;9.87;100.00
80798;BME280;70202;52.238;10.680;2023-11-19T03:45:50;99254.69;;;9.88;100.00
80798;BME280;70202;52.238;10.680;2023-11-19T03:46:50;99154.38;;;9.31;100.00
80798;BME280;70202;52.238;10.680;2023-11-19T03:47:51;99228.72;;;9.82;100.00
80798;BME280;70202;52.238;10.680;2023-11-19T03:48:51;99252.69;;;9.91;100.00
80798;BME280;70202;52.238;10.680;2023-11-19T03:49:52;99246.28;;;9.92;100.00
80798;BME280;70202;52.238;10.680;2023-11-19T03:50:52;99244.44;;;9.93;100.00
80798;BME280;70202;52.238;10.680;2023-11-19T03:51:53;99252.53;;;9.94;100.00
80798;BME280;70202;52.238;10.680;2023-11-19T03:52:53;99243.41;;;9.95;100.00
80798;BME280;70202;52.238;10.680;2023-11-19T03:53:53;99243.41;;;9.95;100.00
80798;BME280;70202;52.238;10.680;2023-11-19T03:54:54;99241.47;;;9.97;100.00
80798;BME280;70202;52.238;10.680;2023-11-19T03:55:55;99240.53;;;9.98;100.00
80798;BME280;70202;52.238;10.680;2023-11-19T03:56:56;99241.41;;;9.99;100.00
80798;BME280;70202;52.238;10.680;2023-11-19T03:57:56;99236.91;;;9.98;100.00
80798;BME280;70202;52.238;10.680;2023-11-19T03:58:56;99248.50;;;10.01;100.00
80798;BME280;70202;52.238;10.680;2023-11-19T03:59:57;99244.84;;;10.02;100.00
80798;BME280;70202;52.238;10.680;2023-11-19T04:00:58;99246.59;;;10.04;100.00
80798;BME280;70202;52.238;10.680;2023-11-19T04:01:59;99246.59;;;10.04;100.00
80798;BME280;70202;52.238;10.680;2023-11-19T04:03:02;99245.63;;;10.05;100.00
80798;BME280;70202;52.238;10.680;2023-11-19T04:04:03;99248.25;;;10.06;100.00
80798;BME280;70202;52.238;10.680;2023-11-19T04:05:04;99236.59;;;10.04;100.00
80798;BME280;70202;52.238;10.680;2023-11-19T04:06:05;99248.19;;;10.08;100.00
80798;BME280;70202;52.238;10.680;2023-11-19T04:07:06;99235.97;;;9.99;100.00
80798;BME280;70202;52.238;10.680;2023-11-19T04:08:06;99256.19;;;10.11;100.00
80798;BME280;70202;52.238;10.680;2023-11-19T04:09:06;99248.81;;;10.13;100.00
80798;BME280;70202;52.238;10.680;2023-11-19T04:10:07;99244.25;;;10.13;100.00
80798;BME280;70202;52.238;10.680;2023-11-19T04:11:08;99250.50;;;10.15;100.00
80798;BME280;70202;52.238;10.680;2023-11-19T04:12:08;99210.78;;;9.95;100.00
80798;BME280;70202;52.238;10.680;2023-11-19T04:13:09;99243.13;;;10.17;100.00
80798;BME280;70202;52.238;10.680;2023-11-19T04:14:10;99250.25;;;10.20;100.00
80798;BME280;70202;52.238;10.680;2023-11-19T04:15:11;99226.91;;;10.16;100.00
80798;BME280;70202;52.238;10.680;2023-11-19T04:16:11;99236.56;;;10.21;100.00
80798;BME280;70202;52.238;10.680;2023-11-19T04:17:12;99222.34;;;10.16;100.00
80798;BME280;70202;52.238;10.680;2023-11-19T04:18:12;99237.31;;;10.25;100.00
80798;BME280;70202;52.238;10.680;2023-11-19T04:19:13;99229.19;;;10.23;100.00
80798;BME280;70202;52.238;10.680;2023-11-19T04:20:13;99223.59;;;10.26;100.00
80798;BME280;70202;52.238;10.680;2023-11-19T04:21:14;99217.19;;;10.27;100.00
80798;BME280;70202;52.238;10.680;2023-11-19T04:22:14;99221.59;;;10.30;100.00
80798;BME280;70202;52.238;10.680;2023-11-19T04:23:14;99218.88;;;10.30;100.00
80798;BME280;70202;52.238;10.680;2023-11-19T04:24:15;99188.72;;;10.17;100.00
80798;BME280;70202;52.238;10.680;2023-11-19T04:25:15;99212.31;;;10.34;100.00
80798;BME280;70202;52.238;10.680;2023-11-19T04:26:16;99205.00;;;10.35;100.00
80798;BME280;70202;52.238;10.680;2023-11-19T04:27:17;99205.81;;;10.37;100.00
80798;BME280;70202;52.238;10.680;2023-11-19T04:28:17;99212.13;;;10.37;100.00
80798;BME280;70202;52.238;10.680;2023-11-19T04:29:17;99207.56;;;10.38;100.00
80798;BME280;70202;52.238;10.680;2023-11-19T04:30:18;99221.09;;;10.39;100.00
80798;BME280;70202;52.238;10.680;2023-11-19T04:31:18;99226.53;;;10.39;100.00
80798;BME280;70202;52.238;10.680;2023-11-19T04:32:19;99227.41;;;10.40;100.00
80798;BME280;70202;52.238;10.680;2023-11-19T04:33:19;99229.09;;;10.42;100.00
80798;BME280;70202;52.238;10.680;2023-11-19T04:34:20;99229.09;;;10.42;100.00
80798;BME280;70202;52.238;10.680;2023-11-19T04:35:20;99229.00;;;10.44;100.00
80798;BME280;70202;52.238;10.680;2023-11-19T04:36:21;99227.06;;;10.46;100.00
80798;BME280;70202;52.238;10.680;2023-11-19T04:37:24;99158.47;;;10.06;100.00
80798;BME280;70202;52.238;10.680;2023-11-19T04:38:24;99219.78;;;10.46;100.00
80798;BME280;70202;52.238;10.680;2023-11-19T04:39:26;99228.66;;;10.50;100.00
80798;BME280;70202;52.238;10.680;2023-11-19T04:40:27;99227.69;;;10.51;100.00
80798;BME280;70202;52.238;10.680;2023-11-19T04:41:27;99226.81;;;10.50;100.00
80798;BME280;70202;52.238;10.680;2023-11-19T04:42:28;99202.03;;;10.39;100.00
80798;BME280;70202;52.238;10.680;2023-11-19T04:43:29;99207.16;;;10.45;100.00
80798;BME280;70202;52.238;10.680;2023-11-19T04:44:30;99217.50;;;10.55;100.00
80798;BME280;70202;52.238;10.680;2023-11-19T04:45:30;99218.38;;;10.55;100.00
80798;BME280;70202;52.238;10.680;2023-11-19T04:46:32;99193.81;;;10.41;100.00
80798;BME280;70202;52.238;10.680;2023-11-19T04:47:33;99226.47;;;10.57;100.00
80798;BME280;70202;52.238;10.680;2023-11-19T04:48:34;99229.13;;;10.58;100.00
80798;BME280;70202;52.238;10.680;2023-11-19T04:49:35;99221.81;;;10.59;100.00
80798;BME280;70202;52.238;10.680;2023-11-19T04:50:35;99222.69;;;10.59;100.00
80798;BME280;70202;52.238;10.680;2023-11-19T04:51:43;99226.19;;;10.61;100.00
80798;BME280;70202;52.238;10.680;2023-11-19T04:52:43;99232.63;;;10.60;100.00
80798;BME280;70202;52.238;10.680;2023-11-19T04:53:46;99203.78;;;10.40;100.00
80798;BME280;70202;52.238;10.680;2023-11-19T04:54:47;99221.13;;;10.55;100.00
80798;BME280;70202;52.238;10.680;2023-11-19T04:55:48;99219.97;;;10.59;100.00
80798;BME280;70202;52.238;10.680;2023-11-19T04:56:49;99228.75;;;10.64;100.00
80798;BME280;70202;52.238;10.680;2023-11-19T04:57:49;99226.84;;;10.66;100.00
80798;BME280;70202;52.238;10.680;2023-11-19T04:58:49;99217.88;;;10.64;100.00
80798;BME280;70202;52.238;10.680;2023-11-19T04:59:50;99227.63;;;10.68;100.00
80798;BME280;70202;52.238;10.680;2023-11-19T05:00:50;99217.59;;;10.69;100.00
80798;BME280;70202;52.238;10.680;2023-11-19T05:01:50;99219.34;;;10.70;100.00
80798;BME280;70202;52.238;10.680;2023-11-19T05:02:51;99231.06;;;10.72;100.00
80798;BME280;70202;52.238;10.680;2023-11-19T05:03:51;99231.94;;;10.72;100.00
80798;BME280;70202;52.238;10.680;2023-11-19T05:04:52;99230.06;;;10.73;100.00
80798;BME280;70202;52.238;10.680;2023-11-19T05:05:52;99221.91;;;10.73;100.00
80798;BME280;70202;52.238;10.680;2023-11-19T05:06:53;99220.06;;;10.73;100.00
80798;BME280;70202;52.238;10.680;2023-11-19T05:07:54;99221.81;;;10.74;100.00
80798;BME280;70202;52.238;10.680;2023-11-19T05:08:56;99221.81;;;10.74;100.00
80798;BME280;70202;52.238;10.680;2023-11-19T05:09:56;99202.56;;;10.62;100.00
80798;BME280;70202;52.238;10.680;2023-11-19T05:10:57;99192.75;;;10.59;100.00
80798;BME280;70202;52.238;10.680;2023-11-19T05:11:57;99227.97;;;10.78;100.00
80798;BME280;70202;52.238;10.680;2023-11-19T05:12:58;99221.75;;;10.76;100.00
80798;BME280;70202;52.238;10.680;2023-11-19T05:13:58;99229.66;;;10.81;100.00
80798;BME280;70202;52.238;10.680;2023-11-19T05:14:58;99228.78;;;10.80;100.00
80798;BME280;70202;52.238;10.680;2023-11-19T05:15:59;99226.81;;;10.82;100.00
80798;BME280;70202;52.238;10.680;2023-11-19T05:16:59;99227.69;;;10.83;100.00
80798;BME280;70202;52.238;10.680;2023-11-19T05:18:00;99222.25;;;10.83;100.00
80798;BME280;70202;52.238;10.680;2023-11-19T05:19:00;99224.03;;;10.84;100.00
80798;BME280;70202;52.238;10.680;2023-11-19T05:20:00;99224.97;;;10.83;100.00
80798;BME280;70202;52.238;10.680;2023-11-19T05:21:01;99223.84;;;10.87;100.00